createdAt,value
2023-01-07T00:00:34.094Z,8.10
2023-01-07T00:03:23.063Z,7.57
2023-01-07T00:06:08.130Z,7.57
2023-01-07T00:08:57.044Z,7.53
2023-01-07T00:11:43.103Z,7.30
2023-01-07T00:14:30.012Z,7.63
2023-01-07T00:17:10.073Z,6.65
2023-01-07T00:19:57.026Z,6.70
2023-01-07T00:22:37.057Z,6.35
2023-01-07T00:25:24.004Z,6.38
2023-01-07T00:28:11.017Z,6.35
2023-01-07T00:30:51.493Z,6.32
2023-01-07T00:33:38.022Z,6.03
2023-01-07T00:36:32.014Z,6.00
2023-01-07T00:39:25.126Z,6.57
2023-01-07T00:42:24.017Z,5.53
2023-01-07T00:45:04.820Z,6.03
2023-01-07T00:47:51.005Z,6.65
2023-01-07T00:50:42.092Z,5.57
2023-01-07T00:53:22.011Z,5.68
2023-01-07T00:56:09.049Z,5.63
2023-01-07T00:58:49.015Z,5.45
2023-01-07T01:01:36.101Z,5.68
2023-01-07T01:04:16.052Z,5.47
2023-01-07T01:07:03.009Z,5.00
2023-01-07T01:09:50.009Z,5.07
2023-01-07T01:12:30.564Z,5.32
2023-01-07T01:15:21.021Z,5.10
2023-01-07T01:18:08.042Z,5.43
2023-01-07T01:20:48.009Z,5.65
2023-01-07T01:23:35.004Z,4.90
2023-01-07T01:26:28.022Z,4.97
2023-01-07T01:29:08.528Z,4.75
2023-01-07T01:31:55.132Z,5.25
2023-01-07T01:34:50.006Z,5.07
2023-01-07T01:40:18.063Z,4.80
2023-01-07T01:45:45.071Z,5.18
2023-01-07T01:48:32.008Z,5.32
2023-01-07T01:51:22.026Z,5.13
2023-01-07T01:54:13.000Z,5.35
2023-01-07T01:57:07.011Z,5.55
2023-01-07T01:59:58.028Z,5.20
2023-01-07T02:03:01.115Z,5.57
2023-01-07T02:05:48.993Z,5.30
2023-01-07T02:08:37.018Z,5.35
2023-01-07T02:11:37.037Z,5.35
2023-01-07T02:15:06.118Z,5.43
2023-01-07T02:18:09.025Z,5.88
2023-01-07T02:21:23.068Z,5.43
2023-01-07T02:24:28.019Z,6.00
2023-01-07T02:27:14.073Z,5.18
2023-01-07T02:30:05.031Z,5.45
2023-01-07T02:33:19.012Z,5.40
2023-01-07T02:36:26.031Z,5.30
2023-01-07T02:39:44.012Z,5.53
2023-01-07T02:42:36.576Z,5.93
2023-01-07T02:45:29.063Z,5.57
2023-01-07T02:48:19.017Z,5.60
2023-01-07T02:51:06.001Z,5.38
2023-01-07T02:53:56.013Z,5.38
2023-01-07T02:57:01.025Z,5.53
2023-01-07T03:00:15.018Z,4.80
2023-01-07T03:03:17.087Z,5.28
2023-01-07T03:06:26.020Z,5.05
2023-01-07T03:09:31.118Z,4.90
2023-01-07T03:12:30.011Z,4.93
2023-01-07T03:15:29.358Z,4.95
2023-01-07T03:18:18.035Z,4.68
2023-01-07T03:21:10.022Z,5.20
2023-01-07T03:23:59.083Z,4.80
2023-01-07T03:26:52.011Z,4.70
2023-01-07T03:29:39.045Z,5.20
2023-01-07T03:32:32.067Z,4.70
2023-01-07T03:35:20.014Z,4.57
2023-01-07T03:38:01.106Z,4.63
2023-01-07T03:40:47.996Z,4.22
2023-01-07T03:43:30.082Z,4.50
2023-01-07T03:46:17.066Z,4.03
2023-01-07T03:48:57.119Z,4.20
2023-01-07T03:51:44.018Z,4.90
2023-01-07T03:54:24.186Z,4.40
2023-01-07T03:57:11.022Z,4.30
2023-01-07T03:59:51.060Z,4.50
2023-01-07T04:02:38.031Z,4.07
2023-01-07T04:05:28.079Z,4.45
2023-01-07T04:08:15.028Z,4.43
2023-01-07T04:10:55.093Z,4.45
2023-01-07T04:13:42.007Z,4.32
2023-01-07T04:16:29.030Z,4.57
2023-01-07T04:19:09.677Z,4.00
2023-01-07T04:21:56.020Z,4.40
2023-01-07T04:24:43.999Z,4.55
2023-01-07T04:27:32.028Z,4.10
2023-01-07T04:30:19.082Z,4.22
2023-01-07T04:33:00.013Z,3.67
2023-01-07T04:35:47.086Z,4.22
2023-01-07T04:38:29.035Z,3.65
2023-01-07T04:41:09.624Z,4.05
2023-01-07T04:43:56.029Z,3.95
2023-01-07T04:46:43.085Z,3.47
2023-01-07T04:49:25.019Z,3.90
2023-01-07T04:52:13.037Z,3.70
2023-01-07T04:55:00.055Z,3.50
2023-01-07T05:00:27.027Z,3.53
2023-01-07T05:03:07.594Z,3.88
2023-01-07T05:05:54.005Z,3.95
2023-01-07T05:11:22.097Z,3.60
2023-01-07T05:14:10.027Z,3.67
2023-01-07T05:16:57.143Z,3.45
2023-01-07T05:19:39.036Z,3.17
2023-01-07T05:22:20.486Z,5.55
2023-01-07T05:25:08.020Z,3.40
2023-01-07T05:27:48.021Z,3.38
2023-01-07T05:30:37.095Z,3.63
2023-01-07T05:33:17.036Z,3.47
2023-01-07T05:36:04.064Z,3.08
2023-01-07T05:38:44.060Z,3.40
2023-01-07T05:41:31.083Z,3.20
2023-01-07T05:44:12.029Z,3.33
2023-01-07T05:46:59.029Z,3.25
2023-01-07T05:49:46.030Z,3.10
2023-01-07T05:52:26.556Z,3.03
2023-01-07T05:55:13.016Z,3.33
2023-01-07T05:57:53.471Z,3.22
2023-01-07T06:00:40.051Z,2.97
2023-01-07T06:03:21.275Z,2.85
2023-01-07T06:09:00.031Z,3.00
2023-01-07T06:11:40.101Z,3.40
2023-01-07T06:14:27.022Z,3.10
2023-01-07T06:17:07.122Z,2.97
2023-01-07T06:19:54.042Z,3.05
2023-01-07T06:22:41.018Z,2.60
2023-01-07T06:25:21.538Z,2.80
2023-01-07T06:28:16.018Z,3.78
2023-01-07T06:31:03.149Z,2.85
2023-01-07T06:33:52.037Z,2.72
2023-01-07T06:36:32.101Z,2.47
2023-01-07T06:39:19.035Z,2.67
2023-01-07T06:41:59.071Z,2.80
2023-01-07T06:44:46.035Z,2.38
2023-01-07T06:47:26.170Z,2.88
2023-01-07T06:50:14.034Z,2.63
2023-01-07T06:52:54.165Z,2.28
2023-01-07T06:55:41.033Z,2.45
2023-01-07T06:58:28.029Z,2.30
2023-01-07T07:01:08.777Z,1.95
2023-01-07T07:03:55.025Z,2.63
2023-01-07T07:06:35.542Z,2.22
2023-01-07T07:09:22.026Z,2.60
2023-01-07T07:12:09.071Z,2.50
2023-01-07T07:14:49.046Z,2.08
2023-01-07T07:17:36.052Z,2.20
2023-01-07T07:20:16.086Z,2.30
2023-01-07T07:23:03.035Z,2.35
2023-01-07T07:25:43.088Z,2.13
2023-01-07T07:28:30.039Z,2.20
2023-01-07T07:31:10.134Z,2.17
2023-01-07T07:34:04.030Z,1.88
2023-01-07T07:36:51.059Z,2.28
2023-01-07T07:39:31.117Z,1.92
2023-01-07T07:42:18.024Z,1.83
2023-01-07T07:44:58.139Z,1.80
2023-01-07T07:47:45.016Z,1.60
2023-01-07T07:50:25.084Z,1.70
2023-01-07T07:53:16.031Z,2.00
2023-01-07T07:56:03.044Z,1.80
2023-01-07T07:58:43.556Z,1.90
2023-01-07T08:01:30.167Z,1.75
2023-01-07T08:04:17.154Z,1.85
2023-01-07T08:06:57.034Z,1.73
2023-01-07T08:09:37.607Z,1.60
2023-01-07T08:12:24.032Z,1.77
2023-01-07T08:15:06.411Z,1.80
2023-01-07T08:17:53.030Z,1.65
2023-01-07T08:20:42.011Z,1.80
2023-01-07T08:23:29.040Z,1.52
2023-01-07T08:26:16.099Z,1.60
2023-01-07T08:28:56.034Z,1.75
2023-01-07T08:31:36.557Z,1.50
2023-01-07T08:34:24.930Z,1.58
2023-01-07T08:37:05.490Z,1.30
2023-01-07T08:39:52.010Z,1.50
2023-01-07T08:42:39.033Z,1.48
2023-01-07T08:45:19.071Z,1.50
2023-01-07T08:48:07.036Z,1.40
2023-01-07T08:50:54.015Z,1.27
2023-01-07T08:53:35.364Z,1.40
2023-01-07T08:59:09.022Z,1.35
2023-01-07T09:01:49.251Z,1.10
2023-01-07T09:04:36.031Z,1.25
2023-01-07T09:07:17.096Z,1.30
2023-01-07T09:12:52.037Z,1.20
2023-01-07T09:15:32.554Z,1.20
2023-01-07T09:18:19.027Z,1.27
2023-01-07T09:20:59.612Z,1.40
2023-01-07T09:23:47.033Z,1.17
2023-01-07T09:26:27.495Z,1.35
2023-01-07T09:29:14.031Z,1.17
2023-01-07T09:32:01.015Z,1.05
2023-01-07T09:34:55.046Z,1.20
2023-01-07T09:37:42.017Z,1.20
2023-01-07T09:41:02.043Z,1.40
2023-01-07T09:44:00.249Z,1.20
2023-01-07T09:46:41.105Z,1.10
2023-01-07T09:49:34.023Z,1.10
2023-01-07T09:52:56.093Z,1.20
2023-01-07T09:56:11.477Z,1.13
2023-01-07T09:58:57.025Z,1.33
2023-01-07T10:01:57.029Z,1.20
2023-01-07T10:05:02.013Z,1.20
2023-01-07T10:08:31.284Z,1.40
2023-01-07T10:11:17.025Z,1.35
2023-01-07T10:14:27.093Z,1.30
2023-01-07T10:17:33.032Z,1.30
2023-01-07T10:20:19.560Z,1.45
2023-01-07T10:23:24.028Z,1.30
2023-01-07T10:26:11.114Z,1.40
2023-01-07T10:29:04.026Z,1.40
2023-01-07T10:31:52.131Z,1.48
2023-01-07T10:34:39.024Z,1.30
2023-01-07T10:37:44.048Z,1.40
2023-01-07T10:40:54.989Z,1.33
2023-01-07T10:44:03.018Z,1.25
2023-01-07T10:47:21.373Z,1.38
2023-01-07T10:50:14.020Z,1.40
2023-01-07T10:53:19.329Z,1.45
2023-01-07T10:56:19.038Z,1.42
2023-01-07T10:59:00.175Z,1.30
2023-01-07T11:01:53.230Z,1.33
2023-01-07T11:04:33.530Z,1.42
2023-01-07T11:07:26.049Z,1.50
2023-01-07T11:10:19.097Z,1.40
2023-01-07T11:13:30.090Z,1.35
2023-01-07T11:16:22.104Z,1.35
2023-01-07T11:19:13.172Z,1.23
2023-01-07T11:22:00.043Z,1.40
2023-01-07T11:24:42.101Z,1.40
2023-01-07T11:27:36.026Z,1.40
2023-01-07T11:30:33.134Z,1.17
2023-01-07T11:34:02.093Z,1.35
2023-01-07T11:36:49.113Z,1.55
2023-01-07T11:39:33.051Z,1.17
2023-01-07T11:42:37.547Z,1.30
2023-01-07T11:45:40.078Z,1.25
2023-01-07T11:48:32.033Z,1.40
2023-01-07T11:51:15.110Z,1.10
2023-01-07T11:54:05.044Z,1.10
2023-01-07T11:56:45.109Z,1.35
2023-01-07T11:59:36.048Z,1.15
2023-01-07T12:02:31.108Z,0.98
2023-01-07T12:05:33.045Z,1.10
2023-01-07T12:08:14.119Z,1.02
2023-01-07T12:11:06.050Z,1.10
2023-01-07T12:13:48.206Z,1.10
2023-01-07T12:16:35.130Z,1.10
2023-01-07T12:22:40.079Z,1.08
2023-01-07T12:25:33.737Z,1.10
2023-01-07T12:28:23.049Z,1.15
2023-01-07T12:31:27.123Z,1.10
2023-01-07T12:34:40.037Z,1.30
2023-01-07T12:37:55.054Z,1.10
2023-01-07T12:41:12.035Z,1.13
2023-01-07T12:44:13.882Z,1.00
2023-01-07T12:47:31.322Z,1.20
2023-01-07T12:50:29.027Z,1.00
2023-01-07T12:53:27.055Z,1.10
2023-01-07T12:56:23.095Z,1.10
2023-01-07T12:59:09.033Z,1.30
2023-01-07T13:02:32.035Z,1.20
2023-01-07T13:05:25.090Z,1.05
2023-01-07T13:08:19.115Z,1.20
2023-01-07T13:11:15.039Z,1.48
2023-01-07T13:14:07.038Z,1.17
2023-01-07T13:16:54.040Z,1.20
2023-01-07T13:22:27.047Z,1.10
2023-01-07T13:25:39.040Z,1.40
2023-01-07T13:28:50.068Z,1.20
2023-01-07T13:31:52.104Z,1.40
2023-01-07T13:35:13.066Z,1.25
2023-01-07T13:38:13.052Z,1.30
2023-01-07T13:41:03.044Z,1.30
2023-01-07T13:43:57.107Z,1.23
2023-01-07T13:46:49.088Z,1.20
2023-01-07T13:49:41.055Z,1.30
2023-01-07T13:52:45.771Z,1.30
2023-01-07T13:55:51.069Z,1.48
2023-01-07T13:58:38.125Z,1.40
2023-01-07T14:04:13.106Z,1.40
2023-01-07T14:06:57.049Z,1.30
2023-01-07T14:09:46.123Z,1.45
2023-01-07T14:13:01.060Z,1.40
2023-01-07T14:15:56.455Z,1.52
2023-01-07T14:18:58.066Z,1.40
2023-01-07T14:22:02.915Z,1.40
2023-01-07T14:25:05.055Z,1.52
2023-01-07T14:28:01.813Z,1.50
2023-01-07T14:30:57.089Z,1.40
2023-01-07T14:33:47.055Z,1.60
2023-01-07T14:37:11.493Z,1.50
2023-01-07T14:39:53.071Z,1.90
2023-01-07T14:42:42.677Z,1.75
2023-01-07T14:45:51.075Z,1.80
2023-01-07T14:48:33.679Z,1.70
2023-01-07T14:51:35.055Z,1.90
2023-01-07T14:54:40.217Z,1.70
2023-01-07T14:57:56.035Z,1.40
2023-01-07T15:01:28.214Z,1.90
2023-01-07T15:04:45.783Z,1.88
2023-01-07T15:07:36.059Z,1.83
2023-01-07T15:10:55.044Z,1.85
2023-01-07T15:14:03.981Z,1.65
2023-01-07T15:16:52.048Z,2.00
2023-01-07T15:19:37.632Z,1.77
2023-01-07T15:22:27.071Z,1.60
2023-01-07T15:25:25.817Z,2.03
2023-01-07T15:28:24.081Z,2.33
2023-01-07T15:31:16.587Z,2.58
2023-01-07T15:34:23.053Z,1.88
2023-01-07T15:37:12.102Z,1.85
2023-01-07T15:39:57.085Z,1.92
2023-01-07T15:42:44.089Z,1.90
2023-01-07T15:45:27.133Z,1.98
2023-01-07T15:48:19.056Z,2.58
2023-01-07T15:51:07.077Z,2.10
2023-01-07T15:54:02.064Z,2.00
2023-01-07T15:56:50.079Z,2.15
2023-01-07T15:59:40.070Z,1.80
2023-01-07T16:02:33.600Z,1.90
2023-01-07T16:05:23.057Z,1.90
2023-01-07T16:08:04.098Z,2.00
2023-01-07T16:11:29.098Z,2.00
2023-01-07T16:14:18.062Z,1.90
2023-01-07T16:17:22.058Z,2.03
2023-01-07T16:20:48.050Z,1.92
2023-01-07T16:23:37.347Z,2.00
2023-01-07T16:26:54.069Z,2.28
2023-01-07T16:29:39.562Z,1.92
2023-01-07T16:32:27.672Z,2.03
2023-01-07T16:35:47.045Z,2.08
2023-01-07T16:38:35.071Z,1.83
2023-01-07T16:41:27.109Z,2.00
2023-01-07T16:44:57.072Z,2.00
2023-01-07T16:50:25.063Z,1.90
2023-01-07T16:56:20.076Z,2.00
2023-01-07T16:59:02.198Z,1.88
2023-01-07T17:01:49.149Z,1.80
2023-01-07T17:04:41.062Z,1.92
2023-01-07T17:07:34.057Z,2.05
2023-01-07T17:10:23.171Z,2.17
2023-01-07T17:13:12.071Z,2.20
2023-01-07T17:15:52.165Z,2.20
2023-01-07T17:18:41.661Z,2.08
2023-01-07T17:21:57.644Z,2.00
2023-01-07T17:24:44.061Z,2.00
2023-01-07T17:27:35.152Z,2.13
2023-01-07T17:30:25.636Z,2.40
2023-01-07T17:33:05.673Z,2.38
2023-01-07T17:36:04.085Z,2.22
2023-01-07T17:38:45.704Z,2.03
2023-01-07T17:41:52.087Z,2.40
2023-01-07T17:44:39.041Z,2.17
2023-01-07T17:50:09.057Z,2.40
2023-01-07T17:52:52.909Z,2.15
2023-01-07T17:55:42.072Z,2.20
2023-01-07T17:58:33.927Z,2.17
2023-01-07T18:01:31.270Z,2.50
2023-01-07T18:04:12.620Z,2.42
2023-01-07T18:06:59.048Z,2.33
2023-01-07T18:09:41.533Z,2.10
2023-01-07T18:12:38.055Z,2.38
2023-01-07T18:15:34.113Z,2.40
2023-01-07T18:18:21.056Z,2.13
2023-01-07T18:23:48.070Z,2.20
2023-01-07T18:26:29.362Z,2.28
2023-01-07T18:29:20.070Z,2.15
2023-01-07T18:32:00.180Z,2.72
2023-01-07T18:34:47.066Z,2.30
2023-01-07T18:37:34.106Z,2.20
2023-01-07T18:40:15.077Z,2.42
2023-01-07T18:43:03.066Z,2.40
2023-01-07T18:45:43.255Z,2.40
2023-01-07T18:48:30.069Z,2.30
2023-01-07T18:51:16.107Z,2.40
2023-01-07T18:54:03.085Z,2.63
2023-01-07T18:56:45.694Z,2.78
2023-01-07T18:59:32.073Z,2.40
2023-01-07T19:05:14.063Z,2.55
2023-01-07T19:07:55.357Z,2.40
2023-01-07T19:10:47.072Z,2.50
2023-01-07T19:13:28.145Z,2.40
2023-01-07T19:18:56.154Z,2.70
2023-01-07T19:21:43.714Z,2.88
2023-01-07T19:24:23.377Z,2.50
2023-01-07T19:27:10.079Z,2.65
2023-01-07T19:29:50.111Z,2.70
2023-01-07T19:32:37.078Z,2.90
2023-01-07T19:35:17.116Z,2.58
2023-01-07T19:38:04.041Z,2.65
2023-01-07T19:40:51.127Z,2.72
2023-01-07T19:43:38.046Z,2.58
2023-01-07T19:46:20.433Z,2.83
2023-01-07T19:49:07.053Z,2.70
2023-01-07T19:51:51.101Z,2.88
2023-01-07T19:54:39.067Z,2.80
2023-01-07T19:57:19.116Z,2.42
2023-01-07T20:00:06.092Z,2.45
2023-01-07T20:02:46.172Z,2.55
2023-01-07T20:05:35.065Z,2.50
2023-01-07T20:08:22.063Z,2.78
2023-01-07T20:13:53.065Z,2.70
2023-01-07T20:16:36.318Z,2.53
2023-01-07T20:19:24.076Z,2.70
2023-01-07T20:22:11.700Z,2.70
2023-01-07T20:24:51.130Z,2.60
2023-01-07T20:27:38.069Z,2.60
2023-01-07T20:30:19.114Z,2.60
2023-01-07T20:33:06.737Z,2.70
2023-01-07T20:35:46.656Z,2.33
2023-01-07T20:38:33.084Z,2.42
2023-01-07T20:41:15.149Z,2.55
2023-01-07T20:44:07.089Z,2.33
2023-01-07T20:46:47.118Z,2.50
2023-01-07T20:49:34.067Z,2.28
2023-01-07T20:52:14.156Z,2.17
2023-01-07T20:55:01.055Z,2.60
2023-01-07T20:57:41.144Z,2.50
2023-01-07T21:00:28.075Z,2.47
2023-01-07T21:03:08.218Z,2.55
2023-01-07T21:05:55.076Z,2.50
2023-01-07T21:08:42.050Z,2.47
2023-01-07T21:11:24.264Z,2.30
2023-01-07T21:14:11.065Z,2.47
2023-01-07T21:16:58.080Z,2.30
2023-01-07T21:19:45.068Z,2.50
2023-01-07T21:22:32.064Z,2.55
2023-01-07T21:25:15.408Z,2.20
2023-01-07T21:28:02.060Z,2.28
2023-01-07T21:30:42.173Z,2.53
2023-01-07T21:33:29.064Z,2.50
2023-01-07T21:36:27.111Z,2.55
2023-01-07T21:39:08.547Z,2.47
2023-01-07T21:44:47.912Z,2.35
2023-01-07T21:47:34.062Z,2.42
2023-01-07T21:50:23.076Z,2.50
2023-01-07T21:53:03.105Z,2.55
2023-01-07T21:55:50.082Z,2.50
2023-01-07T21:58:31.153Z,2.70
2023-01-07T22:03:58.806Z,2.70
2023-01-07T22:09:33.103Z,2.38
2023-01-07T22:12:14.571Z,2.53
2023-01-07T22:17:48.072Z,2.17
2023-01-07T22:20:28.112Z,2.40
2023-01-07T22:23:23.082Z,2.83
2023-01-07T22:26:12.139Z,2.55
2023-01-07T22:29:06.088Z,2.35
2023-01-07T22:31:48.882Z,3.40
2023-01-07T22:34:36.085Z,2.67
2023-01-07T22:37:27.136Z,2.58
2023-01-07T22:40:11.049Z,2.70
2023-01-07T22:43:02.061Z,2.72
2023-01-07T22:46:04.160Z,2.58
2023-01-07T22:48:45.053Z,2.70
2023-01-07T22:54:23.763Z,2.80
2023-01-07T22:59:59.022Z,2.60
2023-01-07T23:02:39.091Z,2.67
2023-01-07T23:05:26.130Z,3.13
2023-01-07T23:08:06.087Z,2.67
2023-01-07T23:10:53.087Z,2.80
2023-01-07T23:13:34.179Z,3.00
2023-01-07T23:16:21.149Z,5.05
2023-01-07T23:19:08.092Z,2.67
2023-01-07T23:21:59.102Z,2.70
2023-01-07T23:24:39.171Z,2.58
2023-01-07T23:27:26.085Z,2.60
2023-01-07T23:30:06.121Z,2.70
2023-01-07T23:32:53.085Z,2.60
2023-01-07T23:35:47.061Z,2.72
2023-01-07T23:38:34.061Z,2.60
2023-01-07T23:41:16.164Z,2.97
2023-01-07T23:44:03.066Z,2.70
2023-01-07T23:46:43.220Z,2.13
2023-01-07T23:49:30.068Z,1.25
2023-01-07T23:52:11.115Z,1.70
2023-01-07T23:57:45.053Z,1.10
